createdAt,value
2019-05-09T00:01:26.711Z,10.76
2019-05-09T00:03:56.471Z,10.76
2019-05-09T00:06:26.275Z,10.75
2019-05-09T00:08:56.044Z,10.78
2019-05-09T00:11:25.839Z,10.77
2019-05-09T00:13:55.588Z,10.80
2019-05-09T00:16:25.277Z,10.81
2019-05-09T00:18:55.133Z,10.82
2019-05-09T00:21:30.454Z,10.82
2019-05-09T00:24:00.198Z,10.83
2019-05-09T00:26:29.964Z,10.84
2019-05-09T00:29:03.940Z,10.82
2019-05-09T00:31:58.310Z,10.82
2019-05-09T00:34:37.690Z,10.79
2019-05-09T00:37:07.437Z,10.80
2019-05-09T00:39:37.128Z,10.80
2019-05-09T00:42:06.883Z,10.80
2019-05-09T00:44:38.251Z,10.79
2019-05-09T00:47:23.953Z,10.78
2019-05-09T00:49:54.234Z,10.78
2019-05-09T00:52:24.065Z,10.75
2019-05-09T00:54:53.760Z,10.76
2019-05-09T00:57:35.863Z,10.74
2019-05-09T01:00:09.736Z,10.75
2019-05-09T01:02:39.435Z,10.73
2019-05-09T01:05:09.210Z,10.74
2019-05-09T01:07:38.948Z,10.73
2019-05-09T01:10:09.292Z,10.74
2019-05-09T01:12:39.059Z,10.71
2019-05-09T01:15:09.871Z,10.72
2019-05-09T01:17:39.684Z,10.69
2019-05-09T01:20:10.774Z,10.67
2019-05-09T01:22:40.513Z,10.67
2019-05-09T01:25:10.544Z,10.67
2019-05-09T01:27:40.311Z,10.66
2019-05-09T01:30:10.763Z,10.58
2019-05-09T01:32:59.455Z,10.54
2019-05-09T01:35:29.166Z,10.50
2019-05-09T01:37:58.863Z,10.44
2019-05-09T01:40:28.661Z,10.41
2019-05-09T01:42:58.351Z,10.44
2019-05-09T01:45:28.075Z,10.43
2019-05-09T01:47:57.804Z,10.45
2019-05-09T01:50:27.506Z,10.46
2019-05-09T01:52:57.292Z,10.52
2019-05-09T01:55:47.204Z,10.54
2019-05-09T01:58:16.906Z,10.58
2019-05-09T02:00:46.596Z,10.56
2019-05-09T02:03:16.311Z,10.56
2019-05-09T02:05:46.079Z,10.54
2019-05-09T02:08:16.573Z,10.53
2019-05-09T02:10:46.401Z,10.51
2019-05-09T02:13:16.085Z,10.52
2019-05-09T02:16:07.469Z,10.53
2019-05-09T02:18:45.056Z,10.52
2019-05-09T02:21:14.825Z,10.52
2019-05-09T02:23:44.613Z,10.50
2019-05-09T02:26:14.454Z,10.51
2019-05-09T02:28:44.211Z,10.52
2019-05-09T02:31:16.306Z,10.53
2019-05-09T02:33:45.923Z,10.54
2019-05-09T02:36:18.741Z,10.55
2019-05-09T02:38:48.687Z,10.59
2019-05-09T02:41:19.708Z,10.61
2019-05-09T02:43:50.024Z,10.63
2019-05-09T02:46:29.386Z,10.64
2019-05-09T02:48:59.463Z,10.64
2019-05-09T02:51:29.624Z,10.65
2019-05-09T02:54:00.288Z,10.65
2019-05-09T02:56:30.036Z,10.66
2019-05-09T02:59:18.949Z,10.67
2019-05-09T03:01:58.310Z,10.66
2019-05-09T03:04:28.406Z,10.66
2019-05-09T03:06:59.614Z,10.66
2019-05-09T03:09:30.841Z,10.65
2019-05-09T03:12:20.527Z,10.67
2019-05-09T03:14:32.103Z,10.66
2019-05-09T03:17:01.784Z,10.67
2019-05-09T03:19:31.498Z,10.68
2019-05-09T03:22:08.760Z,10.69
2019-05-09T03:24:39.402Z,10.69
2019-05-09T03:27:15.216Z,10.71
2019-05-09T03:29:49.141Z,10.66
2019-05-09T03:32:19.651Z,10.63
2019-05-09T03:34:49.502Z,10.57
2019-05-09T03:37:19.265Z,10.54
2019-05-09T03:39:49.159Z,10.53
2019-05-09T03:42:21.594Z,10.54
2019-05-09T03:44:50.273Z,10.55
2019-05-09T03:47:47.910Z,10.56
2019-05-09T03:50:18.420Z,10.54
2019-05-09T03:52:48.174Z,10.52
2019-05-09T03:55:22.449Z,10.51
2019-05-09T03:57:58.771Z,10.49
2019-05-09T04:00:28.591Z,10.54
2019-05-09T04:02:58.278Z,10.55
2019-05-09T04:05:28.284Z,10.56
2019-05-09T04:08:18.221Z,10.58
2019-05-09T04:10:52.379Z,10.63
2019-05-09T04:13:28.147Z,10.67
2019-05-09T04:15:58.229Z,10.69
2019-05-09T04:18:28.198Z,10.73
2019-05-09T04:20:57.857Z,10.74
2019-05-09T04:23:27.748Z,10.78
2019-05-09T04:26:07.582Z,10.79
2019-05-09T04:28:39.639Z,10.76
2019-05-09T04:31:08.594Z,10.76
2019-05-09T04:33:38.474Z,10.72
2019-05-09T04:36:08.448Z,10.76
2019-05-09T04:38:39.978Z,10.80
2019-05-09T04:41:09.644Z,10.85
2019-05-09T04:43:41.029Z,10.90
2019-05-09T04:46:12.904Z,10.92
2019-05-09T04:48:42.238Z,10.99
2019-05-09T04:54:33.097Z,11.04
2019-05-09T04:57:02.870Z,11.08
2019-05-09T04:59:32.595Z,11.09
2019-05-09T05:02:18.270Z,11.11
2019-05-09T05:04:48.110Z,11.17
2019-05-09T05:07:18.175Z,11.25
2019-05-09T05:09:48.464Z,11.30
2019-05-09T05:12:18.650Z,11.26
2019-05-09T05:14:48.507Z,11.27
2019-05-09T05:17:18.292Z,11.25
2019-05-09T05:19:48.536Z,11.23
2019-05-09T05:22:25.113Z,11.17
2019-05-09T05:25:00.210Z,11.16
2019-05-09T05:27:29.920Z,11.14
2019-05-09T05:29:59.611Z,11.12
2019-05-09T05:32:38.904Z,11.10
2019-05-09T05:35:28.424Z,11.07
2019-05-09T05:37:58.317Z,11.07
2019-05-09T05:40:32.758Z,11.12
2019-05-09T05:42:59.567Z,11.22
2019-05-09T05:45:31.180Z,11.40
2019-05-09T05:48:05.192Z,11.49
2019-05-09T05:50:34.949Z,11.62
2019-05-09T05:53:04.750Z,11.77
2019-05-09T05:55:34.466Z,11.92
2019-05-09T05:58:04.296Z,12.10
2019-05-09T06:00:33.928Z,12.32
2019-05-09T06:03:03.869Z,12.44
2019-05-09T06:05:33.559Z,12.47
2019-05-09T06:08:03.341Z,12.55
2019-05-09T06:10:33.012Z,12.71
2019-05-09T06:13:02.745Z,13.02
2019-05-09T06:15:32.437Z,13.16
2019-05-09T06:18:02.165Z,13.12
2019-05-09T06:20:31.976Z,13.27
2019-05-09T06:23:01.656Z,13.83
2019-05-09T06:25:31.400Z,14.87
2019-05-09T06:28:01.254Z,15.36
2019-05-09T06:30:32.690Z,15.22
2019-05-09T06:33:04.865Z,14.92
2019-05-09T06:35:33.894Z,15.07
2019-05-09T06:38:03.673Z,15.62
2019-05-09T06:40:34.375Z,16.42
2019-05-09T06:43:18.387Z,18.01
2019-05-09T06:46:12.731Z,18.31
2019-05-09T06:48:42.477Z,17.72
2019-05-09T06:51:12.316Z,16.82
2019-05-09T06:53:42.075Z,16.10
2019-05-09T06:59:38.950Z,14.95
2019-05-09T07:02:14.524Z,14.77
2019-05-09T07:04:47.654Z,14.72
2019-05-09T07:07:23.938Z,14.86
2019-05-09T07:09:58.603Z,15.44
2019-05-09T07:12:28.301Z,15.98
2019-05-09T07:14:58.338Z,16.31
2019-05-09T07:17:31.715Z,17.08
2019-05-09T07:20:00.758Z,18.46
2019-05-09T07:22:35.212Z,19.02
2019-05-09T07:25:20.374Z,18.50
2019-05-09T07:27:50.112Z,19.71
2019-05-09T07:30:29.147Z,20.03
2019-05-09T07:33:11.004Z,19.22
2019-05-09T07:35:41.673Z,18.05
2019-05-09T07:38:11.360Z,17.13
2019-05-09T07:40:41.077Z,16.72
2019-05-09T07:43:10.762Z,16.33
2019-05-09T07:45:42.418Z,15.99
2019-05-09T07:48:12.120Z,15.73
2019-05-09T07:50:41.809Z,15.67
2019-05-09T07:53:11.478Z,15.58
2019-05-09T07:55:41.197Z,15.80
2019-05-09T07:58:14.241Z,16.61
2019-05-09T08:00:42.355Z,17.67
2019-05-09T08:03:13.239Z,18.78
2019-05-09T08:05:43.179Z,20.26
2019-05-09T08:08:18.600Z,20.00
2019-05-09T08:10:48.288Z,20.00
2019-05-09T08:13:21.349Z,18.81
2019-05-09T08:15:49.336Z,18.04
2019-05-09T08:18:18.992Z,17.61
2019-05-09T08:20:48.731Z,17.22
2019-05-09T08:23:18.442Z,16.76
2019-05-09T08:25:48.561Z,16.36
2019-05-09T08:28:20.133Z,16.21
2019-05-09T08:30:50.003Z,16.18
2019-05-09T08:33:20.736Z,16.27
2019-05-09T08:35:52.603Z,16.34
2019-05-09T08:38:21.993Z,16.34
2019-05-09T08:41:09.195Z,16.22
2019-05-09T08:43:41.050Z,16.21
2019-05-09T08:46:12.109Z,16.21
2019-05-09T08:48:42.305Z,16.09
2019-05-09T08:51:23.345Z,16.04
2019-05-09T08:53:53.106Z,16.11
2019-05-09T08:56:22.847Z,15.99
2019-05-09T08:58:52.589Z,15.95
2019-05-09T09:01:31.079Z,15.93
2019-05-09T09:03:53.849Z,15.97
2019-05-09T09:06:23.565Z,15.97
2019-05-09T09:08:53.232Z,15.98
2019-05-09T09:11:22.979Z,16.03
2019-05-09T09:13:52.736Z,16.16
2019-05-09T09:16:22.726Z,16.32
2019-05-09T09:18:53.599Z,16.39
2019-05-09T09:21:23.293Z,16.47
2019-05-09T09:23:52.946Z,16.54
2019-05-09T09:26:22.685Z,16.69
2019-05-09T09:28:52.429Z,16.90
2019-05-09T09:31:22.180Z,17.00
2019-05-09T09:33:51.877Z,17.19
2019-05-09T09:36:21.766Z,17.35
2019-05-09T09:38:52.419Z,17.40
2019-05-09T09:41:22.101Z,17.37
2019-05-09T09:43:51.838Z,17.30
2019-05-09T09:46:21.586Z,17.54
2019-05-09T09:48:51.277Z,17.91
2019-05-09T09:51:20.972Z,18.49
2019-05-09T09:53:50.680Z,19.77
2019-05-09T09:56:22.627Z,21.88
2019-05-09T09:59:01.627Z,21.88
2019-05-09T10:01:33.378Z,21.19
2019-05-09T10:04:19.857Z,21.25
2019-05-09T10:06:44.331Z,20.55
2019-05-09T10:09:14.065Z,19.84
2019-05-09T10:11:43.839Z,19.58
2019-05-09T10:14:18.748Z,19.76
2019-05-09T10:17:03.533Z,19.52
2019-05-09T10:19:50.662Z,19.94
2019-05-09T10:22:24.516Z,20.02
2019-05-09T10:24:53.322Z,20.02
2019-05-09T10:27:23.088Z,21.98
2019-05-09T10:29:52.876Z,23.40
2019-05-09T10:32:22.592Z,24.12
2019-05-09T10:34:52.282Z,25.25
2019-05-09T10:37:21.981Z,26.49
2019-05-09T10:39:51.740Z,25.43
2019-05-09T10:42:31.782Z,25.12
2019-05-09T10:45:29.280Z,25.03
2019-05-09T10:47:59.037Z,23.70
2019-05-09T10:50:34.085Z,23.93
2019-05-09T10:53:00.156Z,24.73
2019-05-09T10:55:29.823Z,24.02
2019-05-09T10:58:02.372Z,22.96
2019-05-09T11:00:30.998Z,21.68
2019-05-09T11:03:00.706Z,20.76
2019-05-09T11:05:30.394Z,20.10
2019-05-09T11:08:00.197Z,19.53
2019-05-09T11:10:32.858Z,19.01
2019-05-09T11:13:03.799Z,18.59
2019-05-09T11:15:33.532Z,18.29
2019-05-09T11:18:03.302Z,17.92
2019-05-09T11:20:33.035Z,17.44
2019-05-09T11:23:02.757Z,17.28
2019-05-09T11:25:32.529Z,17.11
2019-05-09T11:28:10.861Z,16.90
2019-05-09T11:30:33.985Z,16.78
2019-05-09T11:33:03.676Z,16.77
2019-05-09T11:35:33.455Z,16.47
2019-05-09T11:38:03.154Z,15.83
2019-05-09T11:40:32.869Z,15.33
2019-05-09T11:43:02.554Z,15.00
2019-05-09T11:45:33.366Z,14.91
2019-05-09T11:48:03.122Z,14.90
2019-05-09T11:50:32.888Z,14.86
2019-05-09T11:53:02.642Z,14.82
2019-05-09T11:55:35.934Z,14.79
2019-05-09T11:58:03.741Z,14.93
2019-05-09T12:00:33.433Z,15.11
2019-05-09T12:03:03.148Z,15.33
2019-05-09T12:05:32.906Z,15.49
2019-05-09T12:08:02.597Z,15.48
2019-05-09T12:10:33.459Z,15.43
2019-05-09T12:13:03.164Z,15.39
2019-05-09T12:15:32.838Z,15.11
2019-05-09T12:18:08.119Z,14.77
2019-05-09T12:20:34.013Z,14.60
2019-05-09T12:23:04.718Z,14.44
2019-05-09T12:25:38.609Z,14.43
2019-05-09T12:28:08.638Z,14.57
2019-05-09T12:30:38.398Z,14.79
2019-05-09T12:33:08.728Z,14.96
2019-05-09T12:35:38.710Z,15.13
2019-05-09T12:38:08.550Z,15.27
2019-05-09T12:40:38.901Z,15.44
2019-05-09T12:43:09.252Z,15.64
2019-05-09T12:45:38.991Z,15.89
2019-05-09T12:48:15.108Z,16.06
2019-05-09T12:50:40.161Z,16.23
2019-05-09T12:53:09.837Z,16.45
2019-05-09T12:55:39.520Z,16.73
2019-05-09T12:58:27.853Z,17.09
2019-05-09T13:00:59.293Z,17.47
2019-05-09T13:03:29.848Z,17.92
2019-05-09T13:05:59.621Z,18.17
2019-05-09T13:08:29.337Z,18.06
2019-05-09T13:11:02.323Z,17.98
2019-05-09T13:13:32.352Z,17.91
2019-05-09T13:16:23.873Z,17.76
2019-05-09T13:19:07.200Z,17.67
2019-05-09T13:21:38.976Z,17.76
2019-05-09T13:24:08.715Z,17.68
2019-05-09T13:26:40.825Z,17.58
2019-05-09T13:29:10.513Z,17.58
2019-05-09T13:31:40.222Z,17.66
2019-05-09T13:34:09.889Z,17.76
2019-05-09T13:36:39.639Z,17.87
2019-05-09T13:39:10.724Z,17.86
2019-05-09T13:41:40.759Z,17.82
2019-05-09T13:44:13.527Z,17.69
2019-05-09T13:46:41.873Z,17.50
2019-05-09T13:49:15.392Z,17.40
2019-05-09T13:51:51.031Z,17.38
2019-05-09T13:54:15.582Z,17.47
2019-05-09T13:56:50.493Z,17.57
2019-05-09T13:59:19.241Z,17.74
2019-05-09T14:01:48.995Z,17.90
2019-05-09T14:04:18.739Z,17.99
2019-05-09T14:06:48.866Z,18.18
2019-05-09T14:09:19.978Z,18.38
2019-05-09T14:11:49.901Z,18.52
2019-05-09T14:14:19.595Z,18.66
2019-05-09T14:16:49.366Z,18.77
2019-05-09T14:19:39.614Z,19.05
2019-05-09T14:21:50.464Z,19.34
2019-05-09T14:24:20.169Z,19.66
2019-05-09T14:26:49.965Z,19.79
2019-05-09T14:29:20.753Z,19.79
2019-05-09T14:31:50.591Z,19.89
2019-05-09T14:34:20.307Z,19.85
2019-05-09T14:36:51.097Z,19.71
2019-05-09T14:39:20.821Z,19.53
2019-05-09T14:41:50.493Z,19.53
2019-05-09T14:44:20.180Z,19.33
2019-05-09T14:46:50.270Z,19.16
2019-05-09T14:49:19.968Z,19.08
2019-05-09T14:51:50.187Z,19.01
2019-05-09T14:54:20.196Z,19.23
2019-05-09T14:56:49.933Z,19.39
2019-05-09T14:59:19.579Z,19.43
2019-05-09T15:01:49.734Z,19.51
2019-05-09T15:04:19.518Z,19.67
2019-05-09T15:06:49.325Z,19.48
2019-05-09T15:09:19.000Z,19.07
2019-05-09T15:11:48.858Z,18.66
2019-05-09T15:14:18.529Z,18.46
2019-05-09T15:16:49.373Z,18.35
2019-05-09T15:19:19.115Z,18.35
2019-05-09T15:21:49.084Z,18.53
2019-05-09T15:24:19.469Z,18.83
2019-05-09T15:26:49.415Z,18.93
2019-05-09T15:29:19.171Z,19.07
2019-05-09T15:31:54.571Z,19.14
2019-05-09T15:34:20.388Z,19.38
2019-05-09T15:36:50.160Z,19.70
2019-05-09T15:39:19.881Z,19.86
2019-05-09T15:41:49.727Z,19.74
2019-05-09T15:44:19.468Z,19.55
2019-05-09T15:46:56.698Z,19.14
2019-05-09T15:49:28.528Z,18.77
2019-05-09T15:51:59.250Z,18.56
2019-05-09T15:54:29.525Z,18.40
2019-05-09T15:56:59.473Z,18.32
2019-05-09T15:59:29.143Z,18.41
2019-05-09T16:01:58.968Z,18.67
2019-05-09T16:04:28.712Z,18.95
2019-05-09T16:06:58.420Z,19.18
2019-05-09T16:09:28.712Z,19.30
2019-05-09T16:11:58.496Z,19.41
2019-05-09T16:14:28.195Z,19.36
2019-05-09T16:16:57.872Z,19.36
2019-05-09T16:19:27.760Z,19.04
2019-05-09T16:21:57.562Z,18.86
2019-05-09T16:24:28.014Z,18.73
2019-05-09T16:26:58.164Z,18.54
2019-05-09T16:29:29.287Z,18.31
2019-05-09T16:31:59.377Z,18.14
2019-05-09T16:34:29.083Z,17.99
2019-05-09T16:36:58.761Z,17.89
2019-05-09T16:39:28.470Z,17.80
2019-05-09T16:41:59.192Z,17.76
2019-05-09T16:44:29.216Z,17.71
2019-05-09T16:46:59.072Z,17.73
2019-05-09T16:49:29.431Z,17.78
2019-05-09T16:51:59.418Z,17.81
2019-05-09T16:54:33.171Z,17.85
2019-05-09T16:57:02.899Z,17.89
2019-05-09T16:59:32.908Z,17.86
2019-05-09T17:02:17.846Z,17.83
2019-05-09T17:04:34.112Z,17.82
2019-05-09T17:07:03.989Z,17.76
2019-05-09T17:09:37.754Z,17.73
2019-05-09T17:12:08.347Z,17.68
2019-05-09T17:14:38.228Z,17.63
2019-05-09T17:17:08.502Z,17.59
2019-05-09T17:19:38.173Z,17.50
2019-05-09T17:22:18.345Z,17.40
2019-05-09T17:24:49.707Z,17.27
2019-05-09T17:27:19.548Z,17.14
2019-05-09T17:29:49.801Z,17.06
2019-05-09T17:32:19.776Z,16.99
2019-05-09T17:34:49.495Z,16.93
2019-05-09T17:37:19.169Z,16.89
2019-05-09T17:39:49.013Z,16.89
2019-05-09T17:42:18.775Z,16.88
2019-05-09T17:44:48.978Z,16.85
2019-05-09T17:47:19.765Z,16.85
2019-05-09T17:49:49.609Z,16.85
2019-05-09T17:52:19.326Z,16.86
2019-05-09T17:54:49.143Z,16.85
2019-05-09T17:57:19.145Z,16.85
2019-05-09T17:59:49.119Z,16.79
2019-05-09T18:02:18.921Z,16.76
2019-05-09T18:07:59.084Z,16.68
2019-05-09T18:10:28.897Z,16.62
2019-05-09T18:12:58.936Z,16.58
2019-05-09T18:15:43.450Z,16.57
2019-05-09T18:18:13.827Z,16.56
2019-05-09T18:20:43.765Z,16.55
2019-05-09T18:23:13.734Z,16.53
2019-05-09T18:25:43.589Z,16.50
2019-05-09T18:28:13.535Z,16.50
2019-05-09T18:30:43.339Z,16.45
2019-05-09T18:33:34.950Z,16.40
2019-05-09T18:36:04.902Z,16.36
2019-05-09T18:38:35.320Z,16.31
2019-05-09T18:41:07.956Z,16.28
2019-05-09T18:43:36.676Z,16.26
2019-05-09T18:46:08.368Z,16.25
2019-05-09T18:48:38.387Z,16.25
2019-05-09T18:51:08.192Z,16.24
2019-05-09T18:53:37.970Z,16.22
2019-05-09T18:56:07.841Z,16.19
2019-05-09T18:58:37.881Z,16.18
2019-05-09T19:01:07.672Z,16.16
2019-05-09T19:03:37.417Z,16.14
2019-05-09T19:06:07.184Z,16.14
2019-05-09T19:08:36.966Z,16.13
2019-05-09T19:11:06.944Z,15.94
2019-05-09T19:13:36.635Z,15.75
2019-05-09T19:16:25.361Z,15.56
2019-05-09T19:19:12.750Z,15.31
2019-05-09T19:21:49.013Z,15.15
2019-05-09T19:24:18.742Z,15.03
2019-05-09T19:30:09.464Z,14.91
2019-05-09T19:47:39.774Z,14.53
2019-05-09T19:50:11.249Z,14.42
2019-05-09T19:52:41.110Z,14.24
2019-05-09T19:55:11.057Z,14.16
2019-05-09T19:57:49.812Z,14.09
2019-05-09T20:00:19.971Z,14.05
2019-05-09T20:02:49.784Z,13.98
2019-05-09T20:05:19.888Z,13.89
2019-05-09T20:07:49.688Z,13.73
2019-05-09T20:10:36.683Z,13.57
2019-05-09T20:13:17.331Z,13.48
2019-05-09T20:16:01.957Z,13.41
2019-05-09T20:18:32.786Z,13.40
2019-05-09T20:21:02.548Z,13.38
2019-05-09T20:23:32.312Z,13.36
2019-05-09T20:26:20.911Z,13.36
2019-05-09T20:28:56.668Z,13.32
2019-05-09T20:31:26.392Z,13.25
2019-05-09T20:33:56.104Z,13.19
2019-05-09T20:36:26.096Z,13.14
2019-05-09T20:38:56.046Z,13.11
2019-05-09T20:41:26.034Z,13.12
2019-05-09T20:43:55.909Z,13.14
2019-05-09T20:46:25.950Z,13.17
2019-05-09T20:48:55.881Z,13.21
2019-05-09T20:51:26.752Z,13.27
2019-05-09T20:53:56.683Z,13.31
2019-05-09T20:59:43.100Z,13.41
2019-05-09T21:02:13.067Z,13.41
2019-05-09T21:04:43.046Z,13.45
2019-05-09T21:07:12.999Z,13.47
2019-05-09T21:09:42.882Z,13.48
2019-05-09T21:12:12.836Z,13.45
2019-05-09T21:14:42.710Z,13.42
2019-05-09T21:17:12.696Z,13.37
2019-05-09T21:19:42.681Z,13.33
2019-05-09T21:22:12.711Z,13.33
2019-05-09T21:24:42.689Z,13.37
2019-05-09T21:27:12.609Z,13.38
2019-05-09T21:29:42.456Z,13.36
2019-05-09T21:32:12.362Z,13.37
2019-05-09T21:34:42.085Z,13.40
2019-05-09T21:37:13.896Z,13.40
2019-05-09T21:39:43.359Z,13.40
2019-05-09T21:42:13.035Z,13.28
2019-05-09T21:44:42.812Z,13.17
2019-05-09T21:47:12.463Z,13.10
2019-05-09T21:49:42.203Z,13.04
2019-05-09T21:52:11.926Z,13.00
2019-05-09T21:54:41.703Z,12.94
2019-05-09T21:57:13.882Z,12.92
2019-05-09T21:59:43.690Z,12.92
2019-05-09T22:02:14.271Z,12.94
2019-05-09T22:04:44.050Z,12.95
2019-05-09T22:07:13.887Z,12.95
2019-05-09T22:09:43.696Z,12.95
2019-05-09T22:12:13.441Z,12.95
2019-05-09T22:14:43.298Z,12.89
2019-05-09T22:17:17.003Z,12.84
2019-05-09T22:19:46.827Z,12.77
2019-05-09T22:22:16.530Z,12.73
2019-05-09T22:24:46.214Z,12.65
2019-05-09T22:27:16.907Z,12.60
2019-05-09T22:29:46.631Z,12.57
2019-05-09T22:32:16.290Z,12.54
2019-05-09T22:34:46.072Z,12.46
2019-05-09T22:37:15.760Z,12.41
2019-05-09T22:39:45.446Z,12.34
2019-05-09T22:42:16.327Z,12.26
2019-05-09T22:44:46.069Z,12.16
2019-05-09T22:47:15.750Z,12.10
2019-05-09T22:49:45.442Z,12.04
2019-05-09T22:52:15.135Z,12.01
2019-05-09T22:54:44.782Z,11.97
2019-05-09T22:57:14.548Z,11.90
2019-05-09T22:59:45.046Z,11.79
2019-05-09T23:02:14.815Z,11.73
2019-05-09T23:04:44.571Z,11.71
2019-05-09T23:07:14.288Z,11.70
2019-05-09T23:09:44.059Z,11.65
2019-05-09T23:12:13.822Z,11.58
2019-05-09T23:14:43.579Z,11.55
2019-05-09T23:17:13.272Z,11.48
2019-05-09T23:19:43.027Z,11.43
2019-05-09T23:22:12.776Z,11.38
2019-05-09T23:24:44.623Z,11.31
2019-05-09T23:27:16.359Z,11.26
2019-05-09T23:29:46.094Z,11.27
2019-05-09T23:32:23.256Z,11.26
2019-05-09T23:34:52.973Z,11.25
2019-05-09T23:37:22.711Z,11.24
2019-05-09T23:39:52.681Z,11.22
2019-05-09T23:42:22.418Z,11.15
2019-05-09T23:44:52.113Z,11.14
2019-05-09T23:47:21.911Z,11.13
2019-05-09T23:49:51.591Z,11.15
2019-05-09T23:52:21.358Z,11.18
2019-05-09T23:55:08.590Z,11.18
2019-05-09T23:57:55.820Z,11.20
